createdAt,value
2023-03-24T00:00:14.763Z,14.70
2023-03-24T00:04:17.892Z,14.72
2023-03-24T00:08:18.959Z,14.57
2023-03-24T00:12:19.986Z,14.59
2023-03-24T00:16:22.267Z,14.62
2023-03-24T00:20:27.578Z,14.65
2023-03-24T00:24:28.278Z,14.73
2023-03-24T00:28:28.806Z,14.70
2023-03-24T00:32:30.754Z,14.60
2023-03-24T00:36:34.134Z,14.42
2023-03-24T00:40:34.862Z,14.63
2023-03-24T00:44:36.585Z,14.66
2023-03-24T00:48:39.033Z,14.90
2023-03-24T00:52:44.687Z,14.75
2023-03-24T00:56:50.194Z,14.90
2023-03-24T01:00:53.440Z,14.96
2023-03-24T01:04:57.661Z,15.11
2023-03-24T01:09:03.076Z,14.91
2023-03-24T01:13:05.669Z,15.00
2023-03-24T01:17:08.022Z,14.93
2023-03-24T01:21:09.657Z,14.89
2023-03-24T01:25:17.030Z,14.79
2023-03-24T01:29:17.499Z,14.71
2023-03-24T01:33:19.640Z,14.80
2023-03-24T01:37:20.299Z,14.62
2023-03-24T01:41:23.748Z,14.70
2023-03-24T01:45:59.093Z,14.64
2023-03-24T01:50:05.696Z,14.69
2023-03-24T01:54:11.739Z,14.68
2023-03-24T01:58:15.283Z,14.49
2023-03-24T02:02:39.308Z,14.47
2023-03-24T02:06:44.270Z,14.37
2023-03-24T02:10:48.172Z,14.37
2023-03-24T02:14:52.495Z,14.41
2023-03-24T02:19:15.069Z,14.26
2023-03-24T02:23:50.515Z,14.24
2023-03-24T02:28:21.142Z,14.25
2023-03-24T02:33:14.287Z,14.19
2023-03-24T02:38:12.132Z,14.16
2023-03-24T02:42:29.954Z,14.15
2023-03-24T02:46:43.398Z,14.12
2023-03-24T02:50:52.922Z,14.12
2023-03-24T02:55:03.861Z,13.99
2023-03-24T02:59:12.928Z,14.08
2023-03-24T03:03:24.224Z,14.03
2023-03-24T03:07:33.834Z,14.14
2023-03-24T03:11:34.610Z,14.23
2023-03-24T03:15:42.514Z,14.20
2023-03-24T03:19:48.403Z,14.24
2023-03-24T03:23:55.725Z,14.14
2023-03-24T03:28:00.866Z,14.18
2023-03-24T03:32:08.933Z,14.29
2023-03-24T03:36:18.741Z,14.43
2023-03-24T03:40:26.126Z,14.35
2023-03-24T03:44:34.486Z,14.29
2023-03-24T03:48:39.816Z,14.30
2023-03-24T03:52:44.939Z,14.40
2023-03-24T03:56:47.163Z,14.32
2023-03-24T04:00:56.373Z,14.28
2023-03-24T04:05:33.515Z,14.17
2023-03-24T04:10:05.410Z,14.11
2023-03-24T04:14:26.649Z,14.15
2023-03-24T04:19:14.398Z,14.20
2023-03-24T04:23:30.997Z,14.03
2023-03-24T04:27:43.149Z,14.18
2023-03-24T04:31:53.764Z,13.99
2023-03-24T04:36:06.774Z,14.26
2023-03-24T04:40:27.380Z,14.12
2023-03-24T04:44:30.424Z,14.18
2023-03-24T04:48:51.297Z,14.16
2023-03-24T04:53:04.265Z,14.05
2023-03-24T04:57:09.005Z,14.09
2023-03-24T05:01:21.647Z,13.96
2023-03-24T05:05:42.341Z,13.94
2023-03-24T05:09:45.861Z,13.83
2023-03-24T05:13:50.153Z,13.93
2023-03-24T05:17:52.066Z,13.98
2023-03-24T05:21:54.572Z,14.17
2023-03-24T05:25:55.294Z,14.28
2023-03-24T05:30:00.620Z,14.35
2023-03-24T05:34:04.038Z,14.40
2023-03-24T05:38:07.598Z,14.32
2023-03-24T05:42:08.391Z,14.34
2023-03-24T05:46:12.080Z,14.41
2023-03-24T05:50:14.162Z,14.44
2023-03-24T05:54:14.982Z,14.29
2023-03-24T05:58:17.541Z,14.30
2023-03-24T06:02:25.616Z,14.40
2023-03-24T06:06:32.722Z,14.43
2023-03-24T06:10:33.444Z,14.39
2023-03-24T06:14:34.481Z,14.46
2023-03-24T06:18:44.518Z,14.55
2023-03-24T06:22:59.253Z,14.71
2023-03-24T06:27:09.090Z,14.78
2023-03-24T06:31:18.846Z,14.96
2023-03-24T06:35:22.486Z,14.86
2023-03-24T06:39:33.600Z,14.96
2023-03-24T06:43:35.690Z,15.22
2023-03-24T06:47:36.329Z,15.40
2023-03-24T06:51:41.049Z,15.48
2023-03-24T06:55:42.209Z,15.53
2023-03-24T06:59:45.054Z,15.58
2023-03-24T07:03:46.438Z,15.70
2023-03-24T07:08:27.856Z,15.56
2023-03-24T07:12:16.654Z,15.74
2023-03-24T07:16:18.546Z,15.51
2023-03-24T07:20:26.539Z,15.49
2023-03-24T07:24:52.236Z,15.58
2023-03-24T07:29:12.184Z,15.62
2023-03-24T07:33:35.822Z,15.64
2023-03-24T07:37:36.704Z,15.79
2023-03-24T07:41:40.480Z,16.02
2023-03-24T07:45:49.513Z,16.36
2023-03-24T07:49:54.319Z,16.46
2023-03-24T07:53:55.349Z,16.50
2023-03-24T07:58:10.556Z,16.77
2023-03-24T08:02:22.378Z,16.91
2023-03-24T08:07:00.985Z,16.84
2023-03-24T08:11:03.465Z,16.81
2023-03-24T08:15:09.892Z,16.75
2023-03-24T08:19:10.723Z,16.59
2023-03-24T08:23:11.472Z,16.61
2023-03-24T08:27:11.912Z,16.61
2023-03-24T08:31:16.529Z,16.55
2023-03-24T08:35:20.368Z,16.45
2023-03-24T08:39:21.222Z,16.80
2023-03-24T08:43:23.487Z,17.27
2023-03-24T08:47:26.627Z,17.41
2023-03-24T08:51:27.344Z,17.74
2023-03-24T08:55:31.184Z,17.90
2023-03-24T08:59:32.543Z,18.09
2023-03-24T09:03:36.817Z,17.43
2023-03-24T09:07:40.177Z,17.22
2023-03-24T09:11:41.885Z,17.11
2023-03-24T09:15:49.027Z,17.35
2023-03-24T09:19:52.462Z,17.57
2023-03-24T09:23:53.055Z,17.45
2023-03-24T09:27:57.744Z,17.36
2023-03-24T09:32:00.573Z,17.00
2023-03-24T09:36:08.073Z,16.71
2023-03-24T09:40:11.283Z,16.81
2023-03-24T09:44:26.548Z,16.67
2023-03-24T09:48:38.107Z,16.75
2023-03-24T09:52:47.221Z,16.41
2023-03-24T09:56:51.683Z,16.37
2023-03-24T10:00:54.607Z,16.35
2023-03-24T10:04:59.666Z,15.92
2023-03-24T10:09:25.606Z,15.54
2023-03-24T10:13:35.775Z,16.06
2023-03-24T10:17:51.250Z,16.13
2023-03-24T10:22:03.649Z,16.30
2023-03-24T10:26:20.256Z,16.30
2023-03-24T10:30:26.861Z,16.38
2023-03-24T10:34:35.035Z,16.44
2023-03-24T10:38:35.858Z,16.52
2023-03-24T10:42:42.021Z,17.24
2023-03-24T10:46:51.307Z,17.94
2023-03-24T10:50:52.453Z,18.66
2023-03-24T10:54:59.486Z,18.63
2023-03-24T10:59:07.336Z,18.21
2023-03-24T11:03:19.073Z,17.49
2023-03-24T11:07:26.752Z,17.23
2023-03-24T11:11:36.801Z,17.24
2023-03-24T11:16:01.366Z,17.53
2023-03-24T11:20:02.156Z,17.74
2023-03-24T11:24:05.783Z,17.62
2023-03-24T11:28:11.893Z,17.57
2023-03-24T11:32:25.132Z,17.23
2023-03-24T11:36:52.054Z,17.04
2023-03-24T11:41:02.835Z,17.34
2023-03-24T11:45:04.959Z,17.38
2023-03-24T11:49:08.973Z,17.10
2023-03-24T11:53:20.340Z,17.27
2023-03-24T11:57:45.444Z,17.43
2023-03-24T12:01:55.714Z,17.80
2023-03-24T12:06:15.822Z,17.89
2023-03-24T12:10:29.179Z,18.75
2023-03-24T12:14:48.288Z,19.38
2023-03-24T12:19:37.705Z,19.10
2023-03-24T12:23:52.874Z,18.92
2023-03-24T12:28:08.922Z,18.96
2023-03-24T12:32:23.701Z,19.25
2023-03-24T12:36:47.143Z,19.45
2023-03-24T12:41:18.825Z,19.86
2023-03-24T12:45:49.923Z,20.16
2023-03-24T12:50:15.305Z,19.48
2023-03-24T12:54:34.425Z,18.80
2023-03-24T12:58:47.455Z,19.20
2023-03-24T13:02:57.709Z,18.87
2023-03-24T13:07:07.377Z,18.93
2023-03-24T13:11:30.064Z,18.76
2023-03-24T13:15:44.500Z,18.78
2023-03-24T13:19:46.138Z,19.30
2023-03-24T13:23:57.805Z,20.51
2023-03-24T13:28:06.954Z,21.56
2023-03-24T13:32:17.470Z,21.25
2023-03-24T13:36:45.959Z,21.95
2023-03-24T13:40:51.088Z,22.17
2023-03-24T13:44:53.625Z,21.92
2023-03-24T13:49:03.453Z,21.04
2023-03-24T13:53:15.735Z,20.65
2023-03-24T13:57:24.437Z,19.97
2023-03-24T14:01:40.501Z,20.16
2023-03-24T14:06:05.142Z,19.82
2023-03-24T14:10:44.232Z,19.50
2023-03-24T14:15:19.603Z,17.71
2023-03-24T14:19:27.112Z,16.72
2023-03-24T14:23:41.014Z,16.22
2023-03-24T14:27:44.443Z,15.75
2023-03-24T14:31:48.054Z,15.67
2023-03-24T14:35:52.191Z,15.33
2023-03-24T14:39:57.622Z,15.17
2023-03-24T14:44:03.166Z,15.40
2023-03-24T14:48:06.177Z,15.36
2023-03-24T14:52:19.071Z,15.70
2023-03-24T14:56:26.118Z,16.21
2023-03-24T15:00:36.553Z,16.10
2023-03-24T15:04:40.051Z,16.11
2023-03-24T15:08:42.847Z,16.49
2023-03-24T15:12:51.779Z,16.53
2023-03-24T15:16:58.860Z,16.10
2023-03-24T15:20:59.461Z,16.02
2023-03-24T15:25:01.989Z,15.63
2023-03-24T15:29:09.506Z,15.30
2023-03-24T15:33:14.343Z,15.74
2023-03-24T15:37:26.277Z,15.56
2023-03-24T15:41:26.884Z,15.84
2023-03-24T15:45:33.931Z,15.66
2023-03-24T15:49:37.899Z,15.78
2023-03-24T15:53:49.571Z,15.87
2023-03-24T15:57:52.001Z,15.50
2023-03-24T16:01:56.342Z,15.37
2023-03-24T16:06:01.828Z,14.74
2023-03-24T16:10:10.265Z,14.87
2023-03-24T16:14:33.614Z,14.77
2023-03-24T16:18:41.097Z,14.59
2023-03-24T16:22:57.269Z,14.47
2023-03-24T16:26:57.812Z,14.58
2023-03-24T16:31:04.086Z,14.74
2023-03-24T16:35:04.854Z,14.27
2023-03-24T16:39:18.825Z,14.33
2023-03-24T16:43:20.003Z,13.74
2023-03-24T16:47:20.466Z,13.62
2023-03-24T16:51:22.146Z,13.79
2023-03-24T16:55:26.418Z,13.76
2023-03-24T16:59:27.413Z,13.57
2023-03-24T17:03:30.181Z,13.65
2023-03-24T17:07:31.411Z,13.80
2023-03-24T17:11:38.963Z,13.69
2023-03-24T17:15:39.401Z,13.59
2023-03-24T17:19:42.179Z,13.66
2023-03-24T17:23:44.434Z,13.85
2023-03-24T17:27:48.229Z,13.70
2023-03-24T17:31:48.849Z,13.82
2023-03-24T17:35:49.492Z,13.87
2023-03-24T17:39:49.933Z,13.80
2023-03-24T17:43:54.829Z,13.79
2023-03-24T17:47:56.567Z,14.00
2023-03-24T17:51:57.948Z,14.14
2023-03-24T17:56:06.071Z,13.85
2023-03-24T18:00:15.032Z,13.84
2023-03-24T18:04:17.845Z,13.79
2023-03-24T18:08:20.485Z,13.77
2023-03-24T18:12:24.285Z,13.79
2023-03-24T18:16:31.147Z,13.69
2023-03-24T18:20:33.062Z,13.77
2023-03-24T18:24:36.672Z,13.76
2023-03-24T18:28:40.083Z,13.76
2023-03-24T18:32:45.604Z,13.71
2023-03-24T18:36:50.582Z,13.68
2023-03-24T18:40:59.719Z,13.51
2023-03-24T18:45:02.818Z,13.55
2023-03-24T18:49:08.502Z,13.40
2023-03-24T18:53:10.264Z,13.21
2023-03-24T18:57:12.881Z,13.20
2023-03-24T19:01:23.272Z,13.00
2023-03-24T19:05:30.015Z,13.12
2023-03-24T19:09:32.602Z,13.06
2023-03-24T19:13:35.384Z,12.97
2023-03-24T19:17:37.595Z,12.92
2023-03-24T19:21:44.269Z,12.77
2023-03-24T19:25:46.875Z,12.61
2023-03-24T19:29:51.079Z,12.56
2023-03-24T19:33:54.589Z,12.30
2023-03-24T19:38:00.341Z,12.26
2023-03-24T19:42:04.667Z,12.27
2023-03-24T19:46:08.144Z,12.14
2023-03-24T19:50:11.689Z,12.21
2023-03-24T19:54:18.485Z,11.96
2023-03-24T19:58:21.877Z,12.17
2023-03-24T20:02:25.297Z,12.16
2023-03-24T20:06:28.298Z,12.27
2023-03-24T20:10:32.825Z,12.30
2023-03-24T20:14:37.579Z,12.21
2023-03-24T20:18:40.767Z,12.25
2023-03-24T20:22:46.123Z,12.25
2023-03-24T20:26:49.395Z,12.27
2023-03-24T20:30:52.119Z,12.39
2023-03-24T20:34:53.021Z,12.15
2023-03-24T20:38:53.681Z,12.27
2023-03-24T20:42:56.733Z,12.26
2023-03-24T20:46:59.363Z,12.21
2023-03-24T20:51:00.297Z,12.33
2023-03-24T20:55:01.668Z,12.31
2023-03-24T20:59:07.069Z,12.38
2023-03-24T21:03:08.061Z,12.43
2023-03-24T21:07:08.747Z,12.43
2023-03-24T21:11:09.810Z,12.25
2023-03-24T21:15:14.197Z,12.32
2023-03-24T21:19:16.364Z,12.33
2023-03-24T21:23:18.768Z,12.13
2023-03-24T21:27:21.824Z,12.25
2023-03-24T21:31:29.122Z,12.33
2023-03-24T21:35:31.753Z,12.36
2023-03-24T21:39:32.923Z,12.39
2023-03-24T21:43:35.111Z,12.38
2023-03-24T21:47:38.745Z,12.39
2023-03-24T21:51:43.011Z,12.45
2023-03-24T21:55:44.527Z,12.34
2023-03-24T21:59:45.125Z,12.62
2023-03-24T22:03:48.181Z,12.44
2023-03-24T22:07:50.360Z,12.52
2023-03-24T22:11:53.157Z,12.41
2023-03-24T22:15:58.022Z,12.43
2023-03-24T22:20:01.487Z,12.41
2023-03-24T22:24:02.269Z,12.41
2023-03-24T22:28:03.020Z,12.32
2023-03-24T22:32:04.112Z,12.43
2023-03-24T22:36:08.952Z,12.41
2023-03-24T22:40:13.643Z,12.51
2023-03-24T22:44:15.969Z,12.54
2023-03-24T22:48:16.391Z,12.59
2023-03-24T22:52:19.617Z,12.32
2023-03-24T22:56:20.704Z,12.42
2023-03-24T23:00:22.873Z,12.44
2023-03-24T23:04:23.957Z,12.60
2023-03-24T23:08:29.780Z,12.64
2023-03-24T23:12:32.397Z,12.51
2023-03-24T23:16:33.430Z,12.56
2023-03-24T23:20:33.998Z,12.79
2023-03-24T23:24:39.765Z,12.91
2023-03-24T23:28:40.468Z,12.80
2023-03-24T23:32:44.367Z,12.91
2023-03-24T23:36:50.112Z,12.79
2023-03-24T23:40:53.413Z,13.25
2023-03-24T23:44:54.186Z,13.11
2023-03-24T23:48:54.998Z,13.12
2023-03-24T23:52:55.621Z,13.19
2023-03-24T23:56:58.558Z,13.46
